Tuesday, October 16, 2018, 6:49 AM EDT
Back to Local

KDOV, Dover Air Force Base

Location: Dover, DE, United States Lat: 39.133
Local Time: 6:49 AM EDT (10:49 GMT) Lon: -75.467
Time Zone: US/Eastern Elev: 29 ft

Show me the last for .
Show Decoded

2018-10-16 05:56 METAR KDOV 160956Z AUTO 31010KT 10SM OVC120 14/07 A3012 RMK AO2 SLP203 T01360067
                 $ =
2018-10-16 04:56 METAR KDOV 160856Z AUTO 32011G18KT 10SM FEW070 BKN110 OVC130 14/08 A3009 RMK AO2
                 SLP193 60000 T01420079 52021 $ =
2018-10-16 03:56 METAR KDOV 160756Z AUTO 32018G23KT 10SM FEW031 BKN060 OVC080 16/11 A3007 RMK AO2
                 SLP186 T01550107 $ =
2018-10-16 02:56 METAR KDOV 160656Z AUTO 30012G19KT 10SM OVC055 17/12 A3006 RMK AO2
                 RAE0558RAB15E29DZB29E38 SLP182 P0000 T01650122 $ =
2018-10-16 02:38 METAR KDOV 160638Z AUTO 29010G17KT 10SM OVC047 17/14 A3005 RMK AO2
                 RAE0558RAB15E29DZB29E38 SLP179 $ =
2018-10-16 02:15 METAR KDOV 160615Z AUTO 31008KT 10SM -RA FEW027 OVC043 17/14 A3004 RMK AO2
                 RAE0558RAB15 SLP176 $ =
2018-10-16 01:58 METAR KDOV 160558Z AUTO 31007G16KT 10SM FEW027 OVC040 17/15 A3003 RMK AO2 RAE58
                 SLP172 $ =
2018-10-16 01:56 METAR KDOV 160556Z AUTO 30010G16KT 10SM -RA FEW019 FEW027 OVC040 17/15 A3003 RMK
                 AO2 PK WND 29032/0456 PRESRR SLP172 P0024 60024 T01720152 10231 20172 53031 $ =
2018-10-16 00:57 METAR KDOV 160457Z AUTO 30016G32KT 8SM +RA FEW009 SCT019 SCT024 SCT033 BKN055
                 OVC070 22/18 A2997 RMK AO2 SLP152 $ =
2018-10-16 00:56 METAR KDOV 160456Z AUTO 31023G32KT 10SM -RA FEW019 FEW024 SCT033 BKN060 OVC070
                 23/19 A2997 RMK AO2 PK WND 30037/55 DZE0358RAB0358E08RAB54 SLP152 P0000
                 T02290186 402310146 $ =
2018-10-16 00:54 METAR KDOV 160454Z AUTO 31025G32KT 10SM -RA FEW019 FEW024 SCT033 BKN060 OVC070
                 23/19 A2997 RMK AO2 DZE0358RAB0358E08RAB54 PRESRR SLP152 $ =
2018-10-16 00:51 METAR KDOV 160451Z AUTO 28015G24KT 10SM FEW034 BKN065 OVC080 23/19 A2995 RMK AO2
                 WSHFT 49 DZE0358RAB0358E08 SLP145 $ =
2018-10-16 00:08 METAR KDOV 160408Z AUTO 21013KT 10SM FEW120 FEW180 23/19 A2994 RMK AO2
                 DZE0358RAB0358E08 SLP142 $ =
2018-10-15 23:56 METAR KDOV 160356Z AUTO 22011KT 10SM -DZ FEW120 23/19 A2994 RMK AO2 DZB49 SLP142
                 P0000 T02290186 $ =
2018-10-15 23:49 METAR KDOV 160349Z AUTO 22015KT 10SM -DZ FEW120 23/19 A2994 RMK AO2 DZB49 SLP142
                 $ =
2018-10-15 22:56 METAR KDOV 160256Z AUTO 21014KT 10SM SCT075 OVC140 23/19 A2994 RMK AO2 SLP142
                 T02290186 58000 $ =
2018-10-15 21:56 METAR KDOV 160156Z AUTO 20015KT 10SM OVC140 23/19 A2994 RMK AO2 SLP142 T02270186
                 $ =
2018-10-15 20:56 METAR KDOV 160056Z AUTO 21012KT 10SM CLR 23/18 A2994 RMK AO2 SLP142 T02270184 $
                 =
2018-10-15 19:56 METAR KDOV 152356Z AUTO 19014KT 10SM FEW150 SCT180 BKN220 22/19 A2994 RMK AO2
                 SLP142 60000 T02210191 10229 20216 57012 $ =
2018-10-15 18:56 METAR KDOV 152256Z AUTO 18010KT 10SM SCT095 BKN150 22/19 A2995 RMK AO2 SLP145
                 T02170187 $ =
2018-10-15 17:56 METAR KDOV 152156Z AUTO 21008KT 10SM SCT100 22/19 A2996 RMK AO2 DZB15E24 SLP149
                 P0000 T02200186 $ =
2018-10-15 17:24 METAR KDOV 152124Z AUTO 19011KT 10SM FEW110 22/19 A2996 RMK AO2 DZB15E24 SLP149
                 $ =
2018-10-15 17:15 METAR KDOV 152115Z AUTO 20012KT 10SM -DZ FEW110 22/18 A2996 RMK AO2 DZB15 SLP149
                 $ =
2018-10-15 16:56 METAR KDOV 152056Z AUTO 20013KT 10SM SCT180 23/18 A2997 RMK AO2 SLP152 T02250182
                 58012 $ =
2018-10-15 15:56 METAR KDOV 151956Z AUTO 22015KT 10SM FEW150 SCT200 23/18 A2999 RMK AO2 SLP159
                 T02260179 $ =
2018-10-15 14:56 METAR KDOV 151856Z AUTO 22017G22KT 10SM FEW110 BKN160 BKN200 23/18 A3001 RMK AO2
                 SLP165 T02280177 $ =
2018-10-15 13:56 METAR KDOV 151756Z AUTO 21013KT 10SM SCT200 22/18 A3001 RMK AO2 PK WND 21027/53
                 SLP165 60005 T02240181 10224 20152 57030 $ =
2018-10-15 13:20 METAR KDOV 151720Z AUTO 22013G20KT 10SM SCT015 SCT170 SCT190 21/18 A3003 RMK AO2
                 SLP172 $ =
2018-10-15 13:16 METAR KDOV 151716Z AUTO 22015G22KT 10SM BKN015 BKN190 21/18 A3003 RMK AO2 CIG
                 014 RWY01 SLP172 $ =
2018-10-15 12:56 METAR KDOV 151656Z AUTO 21013KT 10SM OVC013 20/18 A3004 RMK AO2 SLP176 T02010180
                 $ =
2018-10-15 12:01 METAR KDOV 151601Z AUTO 19014KT 10SM OVC010 19/18 A3007 RMK AO2 OVC V BKN CIG
                 009 RWY01 SLP186 $ =
2018-10-15 11:57 METAR KDOV 151557Z AUTO 21014KT 10SM BKN009 OVC013 19/18 A3007 RMK AO2 SLP186 $
                 =
2018-10-15 11:56 METAR KDOV 151556Z AUTO 20013KT 10SM BKN010 OVC015 19/18 A3007 RMK AO2
                 RAE1459DZB1459E02 CIG 008V010 CIG 009 RWY01 SLP186 P0001 T01880180 $ =
2018-10-15 11:46 METAR KDOV 151546Z AUTO 19010KT 10SM BKN010 OVC016 19/18 A3007 RMK AO2
                 RAE1459DZB1459E02 CIG 008V010 CIG 009 RWY01 SLP186 $ =
2018-10-15 11:18 METAR KDOV 151518Z AUTO 19011KT 10SM BKN008 OVC017 18/17 A3009 RMK AO2
                 RAE1459DZB1459E02 CIG 007 RWY01 SLP193 $ =
2018-10-15 11:06 METAR KDOV 151506Z AUTO 18010KT 10SM BKN007 BKN017 OVC045 17/17 A3009 RMK AO2
                 RAE1459DZB1459E02 CIG 006 RWY01 SLP193 $ =
2018-10-15 11:02 METAR KDOV 151502Z AUTO 19012KT 10SM BKN006 OVC045 17/17 A3009 RMK AO2
                 RAE1459DZB1459E02 SLP193 $ =
2018-10-15 10:56 METAR KDOV 151456Z AUTO 19010KT 10SM -RA BKN006 OVC045 17/17 A3010 RMK AO2
                 SLP196 P0002 60004 T01720167 55008 $ =
2018-10-15 10:48 METAR KDOV 151448Z AUTO 18010KT 10SM -RA BKN006 OVC043 17/17 A3010 RMK AO2
                 SLP196 $ =
2018-10-15 10:12 METAR KDOV 151412Z AUTO 20008KT 8SM -RA OVC005 17/16 A3011 RMK AO2 SLP199 $ =
2018-10-15 10:00 METAR KDOV 151400Z AUTO 22009KT 7SM -RA OVC006 17/16 A3012 RMK AO2 SLP203 $ =
2018-10-15 09:56 METAR KDOV 151356Z AUTO 22010KT 8SM -RA OVC007 17/16 A3012 RMK AO2
                 RAE08RAB10E20DZB35E37RAB37 SLP203 P0000 T01660159 $ =
2018-10-15 09:47 METAR KDOV 151347Z AUTO 21009G17KT 9SM -RA OVC007 17/16 A3011 RMK AO2
                 RAE08RAB10E20DZB35E37RAB37 SLP199 $ =
2018-10-15 09:35 METAR KDOV 151335Z AUTO 20012KT 10SM -DZ BKN008 BKN022 OVC044 16/16 A3011 RMK
                 AO2 RAE08RAB10E20DZB35 CIG 008V022 SLP199 $ =
2018-10-15 09:32 METAR KDOV 151332Z AUTO 19011KT 10SM BKN008 BKN022 OVC041 16/16 A3011 RMK AO2
                 RAE08RAB10E20 CIG 008V022 SLP199 $ =
2018-10-15 09:24 METAR KDOV 151324Z AUTO 18014KT 10SM SCT009 BKN022 BKN037 OVC045 16/16 A3011 RMK
                 AO2 RAE08RAB10E20 CIG 022V037 BKN022 V SCT SLP199 $ =
2018-10-15 09:20 METAR KDOV 151320Z AUTO 18013KT 10SM FEW009 SCT022 BKN037 OVC045 16/15 A3011 RMK
                 AO2 RAE08RAB10E20 SLP199 $ =
2018-10-15 09:14 METAR KDOV 151314Z AUTO 18013KT 10SM -RA FEW008 BKN023 BKN029 BKN038 OVC048
                 16/15 A3011 RMK AO2 RAE08RAB10 CIG 023V046 SLP199 $ =
2018-10-15 09:10 METAR KDOV 151310Z AUTO 17013KT 10SM -RA FEW008 SCT024 BKN042 OVC050 16/15 A3011
                 RMK AO2 RAE08RAB10 SLP199 $ =
2018-10-15 09:08 METAR KDOV 151308Z AUTO 18012KT 10SM FEW008 SCT022 SCT027 BKN042 OVC050 16/15
                 A3011 RMK AO2 RAE08 SLP199 $ =
2018-10-15 09:00 METAR KDOV 151300Z AUTO 18012KT 10SM -RA FEW009 SCT024 BKN041 OVC050 16/15 A3011
                 RMK AO2 SLP199 $ =
2018-10-15 08:56 METAR KDOV 151256Z AUTO 18012KT 10SM -RA FEW009 BKN025 BKN040 OVC055 16/15 A3012
                 RMK AO2 RAE34DZB34E35DZB42E43RAB43 CIG 025V050 SLP203 P0002 T01590151 $ =
2018-10-15 08:53 METAR KDOV 151253Z AUTO 18012KT 10SM -RA FEW009 BKN025 BKN038 OVC055 16/15 A3012
                 RMK AO2 RAE34DZB34E35DZB42E43RAB43 CIG 025V050 SLP203 $ =
2018-10-15 08:49 METAR KDOV 151249Z AUTO 18013KT 10SM -RA FEW009 SCT026 BKN038 OVC050 16/15 A3012
                 RMK AO2 RAE34DZB34E35DZB42E43RAB43 SLP203 $ =
2018-10-15 08:42 METAR KDOV 151242Z AUTO 18010KT 10SM -DZ FEW020 FEW029 SCT038 OVC050 16/15 A3012
                 RMK AO2 RAE34DZB34E35DZB42 SLP203 $ =
2018-10-15 08:35 METAR KDOV 151235Z AUTO 18011KT 10SM FEW020 BKN040 OVC050 16/15 A3013 RMK AO2
                 RAE34DZB34E35 SLP206 $ =
2018-10-15 08:14 METAR KDOV 151214Z AUTO 18010KT 9SM -RA FEW006 SCT020 BKN040 OVC050 15/14 A3013
                 RMK AO2 SLP206 $ =
2018-10-15 08:06 METAR KDOV 151206Z AUTO 19010KT 10SM -RA FEW006 SCT020 BKN025 OVC037 15/14 A3013
                 RMK AO2 CIG 025V037 BKN V SCT CIG 021 RWY01 SLP206 $ =
2018-10-15 08:00 METAR KDOV 151200Z AUTO 18008KT 10SM -RA SCT020 SCT025 OVC037 15/14 A3013 RMK
                 AO2 SLP206 $ =
2018-10-15 07:56 METAR KDOV 151156Z AUTO 18011KT 10SM -RA SCT020 BKN025 OVC037 15/14 A3012 RMK
                 AO2 RAE06DZB06E07DZB25E27RAB27 CIG 022V032 CIG 022 RWY01 SLP203 P0000 60000
                 70001 T01540138 10163 20146 57003 $ =
2018-10-15 07:50 METAR KDOV 151150Z AUTO 19011KT 10SM -RA FEW009 SCT020 BKN025 OVC037 15/14 A3013
                 RMK AO2 RAE06DZB06E07DZB25E27RAB27 CIG 022V036 CIG 024 RWY01 SLP206 $ =
2018-10-15 07:49 METAR KDOV 151149Z AUTO 19011KT 10SM -RA FEW011 BKN022 BKN027 OVC037 15/14 A3013
                 RMK AO2 RAE06DZB06E07DZB25E27RAB27 CIG 022V036 SLP206 $ =
2018-10-15 07:37 METAR KDOV 151137Z AUTO 17010KT 10SM -RA FEW009 FEW021 SCT030 BKN040 OVC055
                 16/13 A3013 RMK AO2 RAE06DZB06E07DZB25E27RAB27 SLP206 $ =
2018-10-15 07:25 METAR KDOV 151125Z AUTO 18008KT 10SM -DZ FEW022 BKN028 BKN035 16/13 A3013 RMK
                 AO2 RAE06DZB06E07DZB25 SLP206 $ =
2018-10-15 07:07 METAR KDOV 151107Z AUTO 17009KT 10SM BKN029 OVC055 16/13 A3013 RMK AO2
                 RAE06DZB06E07 CIG 029V035 CIG 028 RWY01 SLP206 $ =
2018-10-15 07:00 METAR KDOV 151100Z AUTO 17008KT 10SM -RA BKN029 BKN035 OVC060 16/13 A3013 RMK
                 AO2 CIG 029V060 SLP206 $ =
2018-10-15 06:56 METAR KDOV 151056Z AUTO 17008KT 10SM -RA SCT030 SCT035 OVC060 16/13 A3013 RMK
                 AO2 DZB50E52RAB52 SLP206 P0000 T01600125 $ =
2018-10-15 06:50 METAR KDOV 151050Z AUTO 18009KT 10SM -DZ FEW030 SCT044 OVC060 16/12 A3013 RMK
                 AO2 DZB50 SLP206 $ =

Support USWX by starting your Amazon purchase here.